sensor_id;sensor_type;location;lat;lon;timestamp;temperature;humidity
56234;DHT22;42141;53.240;6.580;2023-05-19T00:01:31;7.50;99.90
56234;DHT22;42141;53.240;6.580;2023-05-19T00:03:58;7.50;99.90
56234;DHT22;42141;53.240;6.580;2023-05-19T00:06:29;7.60;99.90
56234;DHT22;42141;53.240;6.580;2023-05-19T00:11:24;7.60;99.90
56234;DHT22;42141;53.240;6.580;2023-05-19T00:13:53;7.60;99.90
56234;DHT22;42141;53.240;6.580;2023-05-19T00:16:19;7.60;99.90
56234;DHT22;42141;53.240;6.580;2023-05-19T00:18:45;7.60;99.90
56234;DHT22;42141;53.240;6.580;2023-05-19T00:21:12;8.30;99.90
56234;DHT22;42141;53.240;6.580;2023-05-19T00:23:38;8.00;99.90
56234;DHT22;42141;53.240;6.580;2023-05-19T00:26:04;9.40;99.90
56234;DHT22;42141;53.240;6.580;2023-05-19T00:28:29;7.80;99.90
56234;DHT22;42141;53.240;6.580;2023-05-19T00:30:55;8.90;99.90
56234;DHT22;42141;53.240;6.580;2023-05-19T00:33:21;7.80;99.90
56234;DHT22;42141;53.240;6.580;2023-05-19T00:35:47;7.80;99.90
56234;DHT22;42141;53.240;6.580;2023-05-19T00:38:12;7.80;99.90
56234;DHT22;42141;53.240;6.580;2023-05-19T00:40:38;8.30;99.90
56234;DHT22;42141;53.240;6.580;2023-05-19T00:43:04;7.90;99.90
56234;DHT22;42141;53.240;6.580;2023-05-19T00:45:30;7.90;99.90
56234;DHT22;42141;53.240;6.580;2023-05-19T00:47:56;7.90;99.90
56234;DHT22;42141;53.240;6.580;2023-05-19T00:50:22;8.00;99.90
56234;DHT22;42141;53.240;6.580;2023-05-19T00:52:53;7.90;99.90
56234;DHT22;42141;53.240;6.580;2023-05-19T00:55:21;8.80;99.90
56234;DHT22;42141;53.240;6.580;2023-05-19T00:57:48;7.90;99.90
56234;DHT22;42141;53.240;6.580;2023-05-19T01:00:15;7.90;99.90
56234;DHT22;42141;53.240;6.580;2023-05-19T01:02:41;7.90;99.90
56234;DHT22;42141;53.240;6.580;2023-05-19T01:05:08;8.10;99.90
56234;DHT22;42141;53.240;6.580;2023-05-19T01:07:34;7.90;99.90
56234;DHT22;42141;53.240;6.580;2023-05-19T01:10:01;9.20;99.90
56234;DHT22;42141;53.240;6.580;2023-05-19T01:12:27;8.70;99.90
56234;DHT22;42141;53.240;6.580;2023-05-19T01:14:54;7.90;99.90
56234;DHT22;42141;53.240;6.580;2023-05-19T01:17:26;8.60;99.90
56234;DHT22;42141;53.240;6.580;2023-05-19T01:30:28;7.80;99.90
56234;DHT22;42141;53.240;6.580;2023-05-19T01:33:01;7.80;99.90
56234;DHT22;42141;53.240;6.580;2023-05-19T01:35:27;8.60;99.90
56234;DHT22;42141;53.240;6.580;2023-05-19T01:37:55;7.90;99.90
56234;DHT22;42141;53.240;6.580;2023-05-19T01:40:22;8.60;99.90
56234;DHT22;42141;53.240;6.580;2023-05-19T01:42:51;7.60;99.90
56234;DHT22;42141;53.240;6.580;2023-05-19T01:45:18;8.10;99.90
56234;DHT22;42141;53.240;6.580;2023-05-19T01:47:46;8.30;99.90
56234;DHT22;42141;53.240;6.580;2023-05-19T01:50:12;7.80;99.90
56234;DHT22;42141;53.240;6.580;2023-05-19T01:52:38;8.50;99.90
56234;DHT22;42141;53.240;6.580;2023-05-19T01:55:04;7.60;99.90
56234;DHT22;42141;53.240;6.580;2023-05-19T01:57:51;7.60;99.90
56234;DHT22;42141;53.240;6.580;2023-05-19T02:00:46;7.50;99.90
56234;DHT22;42141;53.240;6.580;2023-05-19T02:09:14;7.30;99.90
56234;DHT22;42141;53.240;6.580;2023-05-19T02:11:46;7.50;99.90
56234;DHT22;42141;53.240;6.580;2023-05-19T02:14:19;7.90;99.90
56234;DHT22;42141;53.240;6.580;2023-05-19T02:16:47;7.50;99.90
56234;DHT22;42141;53.240;6.580;2023-05-19T02:19:21;7.50;99.90
56234;DHT22;42141;53.240;6.580;2023-05-19T02:21:47;7.50;99.90
56234;DHT22;42141;53.240;6.580;2023-05-19T02:24:12;7.40;99.90
56234;DHT22;42141;53.240;6.580;2023-05-19T02:26:38;7.40;99.90
56234;DHT22;42141;53.240;6.580;2023-05-19T02:29:05;7.40;99.90
56234;DHT22;42141;53.240;6.580;2023-05-19T02:31:30;8.40;99.90
56234;DHT22;42141;53.240;6.580;2023-05-19T02:33:56;8.20;99.90
56234;DHT22;42141;53.240;6.580;2023-05-19T02:36:21;8.50;99.90
56234;DHT22;42141;53.240;6.580;2023-05-19T02:38:47;7.70;99.90
56234;DHT22;42141;53.240;6.580;2023-05-19T02:41:13;7.40;99.90
56234;DHT22;42141;53.240;6.580;2023-05-19T02:43:38;7.40;99.90
56234;DHT22;42141;53.240;6.580;2023-05-19T02:46:04;8.80;99.90
56234;DHT22;42141;53.240;6.580;2023-05-19T02:48:30;7.40;99.90
56234;DHT22;42141;53.240;6.580;2023-05-19T02:50:55;7.40;99.90
56234;DHT22;42141;53.240;6.580;2023-05-19T02:53:21;7.40;99.90
56234;DHT22;42141;53.240;6.580;2023-05-19T02:55:47;7.40;99.90
56234;DHT22;42141;53.240;6.580;2023-05-19T02:58:12;7.40;99.90
56234;DHT22;42141;53.240;6.580;2023-05-19T03:00:38;8.80;99.90
56234;DHT22;42141;53.240;6.580;2023-05-19T03:03:04;7.60;99.90
56234;DHT22;42141;53.240;6.580;2023-05-19T03:05:29;8.90;99.90
56234;DHT22;42141;53.240;6.580;2023-05-19T03:07:55;7.30;99.90
56234;DHT22;42141;53.240;6.580;2023-05-19T03:10:21;8.30;99.90
56234;DHT22;42141;53.240;6.580;2023-05-19T03:12:47;7.20;99.90
56234;DHT22;42141;53.240;6.580;2023-05-19T03:15:13;7.10;99.90
56234;DHT22;42141;53.240;6.580;2023-05-19T03:17:39;7.10;99.90
56234;DHT22;42141;53.240;6.580;2023-05-19T03:20:06;8.30;99.90
56234;DHT22;42141;53.240;6.580;2023-05-19T03:22:32;7.10;99.90
56234;DHT22;42141;53.240;6.580;2023-05-19T03:24:58;7.10;99.90
56234;DHT22;42141;53.240;6.580;2023-05-19T03:27:23;7.40;99.90
56234;DHT22;42141;53.240;6.580;2023-05-19T03:29:49;7.00;99.90
56234;DHT22;42141;53.240;6.580;2023-05-19T03:32:15;7.70;99.90
56234;DHT22;42141;53.240;6.580;2023-05-19T03:34:40;8.10;99.90
56234;DHT22;42141;53.240;6.580;2023-05-19T03:37:06;7.10;99.90
56234;DHT22;42141;53.240;6.580;2023-05-19T03:39:32;7.10;99.90
56234;DHT22;42141;53.240;6.580;2023-05-19T03:41:58;7.10;99.90
56234;DHT22;42141;53.240;6.580;2023-05-19T03:44:23;7.10;99.90
56234;DHT22;42141;53.240;6.580;2023-05-19T03:46:49;8.60;99.90
56234;DHT22;42141;53.240;6.580;2023-05-19T03:49:15;7.00;99.90
56234;DHT22;42141;53.240;6.580;2023-05-19T03:51:41;7.00;99.90
56234;DHT22;42141;53.240;6.580;2023-05-19T03:54:07;8.50;99.90
56234;DHT22;42141;53.240;6.580;2023-05-19T03:56:33;7.30;99.90
56234;DHT22;42141;53.240;6.580;2023-05-19T03:58:58;8.10;99.90
56234;DHT22;42141;53.240;6.580;2023-05-19T04:01:24;7.70;99.90
56234;DHT22;42141;53.240;6.580;2023-05-19T04:03:50;7.00;99.90
56234;DHT22;42141;53.240;6.580;2023-05-19T04:06:15;7.10;99.90
56234;DHT22;42141;53.240;6.580;2023-05-19T04:08:42;7.10;99.90
56234;DHT22;42141;53.240;6.580;2023-05-19T04:11:08;7.60;99.90
56234;DHT22;42141;53.240;6.580;2023-05-19T04:13:34;7.00;99.90
56234;DHT22;42141;53.240;6.580;2023-05-19T04:16:00;7.00;99.90
56234;DHT22;42141;53.240;6.580;2023-05-19T04:18:26;7.10;99.90
56234;DHT22;42141;53.240;6.580;2023-05-19T04:20:51;7.10;99.90
56234;DHT22;42141;53.240;6.580;2023-05-19T04:23:17;8.80;99.90
56234;DHT22;42141;53.240;6.580;2023-05-19T04:25:43;7.50;99.90
56234;DHT22;42141;53.240;6.580;2023-05-19T04:28:08;7.20;99.90
56234;DHT22;42141;53.240;6.580;2023-05-19T04:30:34;7.70;99.90
56234;DHT22;42141;53.240;6.580;2023-05-19T04:33:01;7.40;99.90
56234;DHT22;42141;53.240;6.580;2023-05-19T04:35:29;8.00;99.90
56234;DHT22;42141;53.240;6.580;2023-05-19T04:37:54;7.50;99.90
56234;DHT22;42141;53.240;6.580;2023-05-19T04:40:20;8.60;99.90
56234;DHT22;42141;53.240;6.580;2023-05-19T04:42:49;8.40;99.90
56234;DHT22;42141;53.240;6.580;2023-05-19T04:45:17;7.60;99.90
56234;DHT22;42141;53.240;6.580;2023-05-19T04:47:42;8.20;99.90
56234;DHT22;42141;53.240;6.580;2023-05-19T04:50:09;7.70;99.90
56234;DHT22;42141;53.240;6.580;2023-05-19T04:52:35;7.80;99.90
56234;DHT22;42141;53.240;6.580;2023-05-19T04:55:02;7.40;99.90
56234;DHT22;42141;53.240;6.580;2023-05-19T04:57:28;8.10;99.90
56234;DHT22;42141;53.240;6.580;2023-05-19T04:59:54;8.20;99.90
56234;DHT22;42141;53.240;6.580;2023-05-19T05:02:27;8.40;99.90
56234;DHT22;42141;53.240;6.580;2023-05-19T05:04:53;8.50;99.90
56234;DHT22;42141;53.240;6.580;2023-05-19T05:07:21;8.60;99.90
56234;DHT22;42141;53.240;6.580;2023-05-19T05:09:47;8.70;99.90
56234;DHT22;42141;53.240;6.580;2023-05-19T05:12:14;8.80;99.90
56234;DHT22;42141;53.240;6.580;2023-05-19T05:14:40;7.80;99.90
56234;DHT22;42141;53.240;6.580;2023-05-19T05:17:06;9.10;99.90
56234;DHT22;42141;53.240;6.580;2023-05-19T05:19:33;9.20;99.90
56234;DHT22;42141;53.240;6.580;2023-05-19T05:21:59;9.30;99.90
56234;DHT22;42141;53.240;6.580;2023-05-19T05:24:25;9.40;99.90
56234;DHT22;42141;53.240;6.580;2023-05-19T05:26:51;9.50;99.90
56234;DHT22;42141;53.240;6.580;2023-05-19T05:29:16;9.60;99.90
56234;DHT22;42141;53.240;6.580;2023-05-19T05:31:42;9.70;99.90
56234;DHT22;42141;53.240;6.580;2023-05-19T05:34:08;9.80;99.90
56234;DHT22;42141;53.240;6.580;2023-05-19T05:36:34;9.90;99.90
56234;DHT22;42141;53.240;6.580;2023-05-19T05:39:00;10.00;99.90
56234;DHT22;42141;53.240;6.580;2023-05-19T05:41:27;10.10;99.90
56234;DHT22;42141;53.240;6.580;2023-05-19T05:44:00;10.20;99.90
56234;DHT22;42141;53.240;6.580;2023-05-19T05:46:25;10.30;99.90
56234;DHT22;42141;53.240;6.580;2023-05-19T05:48:51;10.80;99.90
56234;DHT22;42141;53.240;6.580;2023-05-19T05:51:20;10.60;99.90
56234;DHT22;42141;53.240;6.580;2023-05-19T05:53:52;10.60;99.90
56234;DHT22;42141;53.240;6.580;2023-05-19T05:56:18;10.70;99.90
56234;DHT22;42141;53.240;6.580;2023-05-19T05:58:44;10.80;99.90
56234;DHT22;42141;53.240;6.580;2023-05-19T06:01:10;10.90;99.90
56234;DHT22;42141;53.240;6.580;2023-05-19T06:03:40;11.00;99.90
56234;DHT22;42141;53.240;6.580;2023-05-19T06:06:09;11.10;99.90
56234;DHT22;42141;53.240;6.580;2023-05-19T06:08:36;11.20;99.90
56234;DHT22;42141;53.240;6.580;2023-05-19T06:11:02;11.30;99.90
56234;DHT22;42141;53.240;6.580;2023-05-19T06:13:34;11.40;99.90
56234;DHT22;42141;53.240;6.580;2023-05-19T06:16:00;11.50;99.90
56234;DHT22;42141;53.240;6.580;2023-05-19T06:18:27;11.60;99.90
56234;DHT22;42141;53.240;6.580;2023-05-19T06:20:53;11.70;99.90
56234;DHT22;42141;53.240;6.580;2023-05-19T06:23:18;11.80;99.90
56234;DHT22;42141;53.240;6.580;2023-05-19T06:25:44;11.90;99.90
56234;DHT22;42141;53.240;6.580;2023-05-19T06:28:10;11.90;99.90
56234;DHT22;42141;53.240;6.580;2023-05-19T06:30:36;12.10;99.90
56234;DHT22;42141;53.240;6.580;2023-05-19T06:33:02;12.10;99.90
56234;DHT22;42141;53.240;6.580;2023-05-19T06:35:28;12.20;99.90
56234;DHT22;42141;53.240;6.580;2023-05-19T06:37:54;12.30;99.90
56234;DHT22;42141;53.240;6.580;2023-05-19T06:40:21;12.40;99.90
56234;DHT22;42141;53.240;6.580;2023-05-19T06:42:47;12.50;99.90
56234;DHT22;42141;53.240;6.580;2023-05-19T06:45:12;12.50;99.90
56234;DHT22;42141;53.240;6.580;2023-05-19T06:47:38;12.60;99.90
56234;DHT22;42141;53.240;6.580;2023-05-19T06:50:07;12.70;99.90
56234;DHT22;42141;53.240;6.580;2023-05-19T06:52:33;12.80;99.90
56234;DHT22;42141;53.240;6.580;2023-05-19T06:54:59;13.20;99.90
56234;DHT22;42141;53.240;6.580;2023-05-19T06:57:25;12.90;99.90
56234;DHT22;42141;53.240;6.580;2023-05-19T06:59:51;12.90;99.90
56234;DHT22;42141;53.240;6.580;2023-05-19T07:02:16;13.00;99.90
56234;DHT22;42141;53.240;6.580;2023-05-19T07:04:42;13.10;99.90
56234;DHT22;42141;53.240;6.580;2023-05-19T07:07:08;13.20;99.90
56234;DHT22;42141;53.240;6.580;2023-05-19T07:09:34;13.30;99.90
56234;DHT22;42141;53.240;6.580;2023-05-19T07:11:59;13.40;99.90
56234;DHT22;42141;53.240;6.580;2023-05-19T07:14:26;13.50;99.90
56234;DHT22;42141;53.240;6.580;2023-05-19T07:16:51;13.60;99.90
56234;DHT22;42141;53.240;6.580;2023-05-19T07:19:17;13.60;99.90
56234;DHT22;42141;53.240;6.580;2023-05-19T07:21:46;13.80;99.90
56234;DHT22;42141;53.240;6.580;2023-05-19T07:24:12;13.90;99.90
56234;DHT22;42141;53.240;6.580;2023-05-19T07:26:38;14.00;99.90
56234;DHT22;42141;53.240;6.580;2023-05-19T07:29:04;14.10;99.90
56234;DHT22;42141;53.240;6.580;2023-05-19T07:31:31;14.20;99.90
56234;DHT22;42141;53.240;6.580;2023-05-19T07:33:57;14.30;99.90
56234;DHT22;42141;53.240;6.580;2023-05-19T07:36:23;14.50;99.90
56234;DHT22;42141;53.240;6.580;2023-05-19T07:38:49;14.50;99.90
56234;DHT22;42141;53.240;6.580;2023-05-19T07:41:14;14.60;99.90
56234;DHT22;42141;53.240;6.580;2023-05-19T07:43:40;14.70;99.90
56234;DHT22;42141;53.240;6.580;2023-05-19T07:46:06;14.80;99.90
56234;DHT22;42141;53.240;6.580;2023-05-19T07:48:32;14.90;99.90
56234;DHT22;42141;53.240;6.580;2023-05-19T07:50:57;14.90;99.90
56234;DHT22;42141;53.240;6.580;2023-05-19T07:53:23;15.00;99.90
56234;DHT22;42141;53.240;6.580;2023-05-19T07:55:49;15.00;99.90
56234;DHT22;42141;53.240;6.580;2023-05-19T07:58:15;15.20;99.90
56234;DHT22;42141;53.240;6.580;2023-05-19T08:00:40;15.30;99.90
56234;DHT22;42141;53.240;6.580;2023-05-19T08:03:10;15.30;99.90
56234;DHT22;42141;53.240;6.580;2023-05-19T08:05:36;15.50;99.90
56234;DHT22;42141;53.240;6.580;2023-05-19T08:08:02;15.60;99.90
56234;DHT22;42141;53.240;6.580;2023-05-19T08:10:28;15.70;99.90
56234;DHT22;42141;53.240;6.580;2023-05-19T08:12:54;15.80;99.90
56234;DHT22;42141;53.240;6.580;2023-05-19T08:15:20;15.80;99.90
56234;DHT22;42141;53.240;6.580;2023-05-19T08:17:46;15.90;99.90
56234;DHT22;42141;53.240;6.580;2023-05-19T08:20:12;16.00;99.90
56234;DHT22;42141;53.240;6.580;2023-05-19T08:22:38;16.10;99.90
56234;DHT22;42141;53.240;6.580;2023-05-19T08:25:04;16.10;99.90
56234;DHT22;42141;53.240;6.580;2023-05-19T08:27:31;16.20;99.90
56234;DHT22;42141;53.240;6.580;2023-05-19T08:29:57;16.30;99.90
56234;DHT22;42141;53.240;6.580;2023-05-19T08:32:23;16.50;99.90
56234;DHT22;42141;53.240;6.580;2023-05-19T08:34:49;16.50;99.90
56234;DHT22;42141;53.240;6.580;2023-05-19T08:37:14;16.50;99.90
56234;DHT22;42141;53.240;6.580;2023-05-19T08:39:40;16.50;99.90
56234;DHT22;42141;53.240;6.580;2023-05-19T08:42:06;16.70;99.90
56234;DHT22;42141;53.240;6.580;2023-05-19T08:44:37;16.80;99.90
56234;DHT22;42141;53.240;6.580;2023-05-19T08:47:04;16.80;99.90
56234;DHT22;42141;53.240;6.580;2023-05-19T08:49:34;16.90;99.90
56234;DHT22;42141;53.240;6.580;2023-05-19T08:52:13;17.00;99.90
56234;DHT22;42141;53.240;6.580;2023-05-19T08:55:04;17.10;99.90
56234;DHT22;42141;53.240;6.580;2023-05-19T08:57:34;17.30;99.90
56234;DHT22;42141;53.240;6.580;2023-05-19T09:00:02;17.50;99.90
56234;DHT22;42141;53.240;6.580;2023-05-19T09:02:30;17.60;99.90
56234;DHT22;42141;53.240;6.580;2023-05-19T09:04:57;18.90;99.90
56234;DHT22;42141;53.240;6.580;2023-05-19T09:07:23;17.70;99.90
56234;DHT22;42141;53.240;6.580;2023-05-19T09:09:50;17.70;99.90
56234;DHT22;42141;53.240;6.580;2023-05-19T09:12:16;17.70;99.90
56234;DHT22;42141;53.240;6.580;2023-05-19T09:14:42;17.80;99.90
56234;DHT22;42141;53.240;6.580;2023-05-19T09:17:08;17.80;99.90
56234;DHT22;42141;53.240;6.580;2023-05-19T09:19:34;17.80;99.90
56234;DHT22;42141;53.240;6.580;2023-05-19T09:22:01;17.80;99.90
56234;DHT22;42141;53.240;6.580;2023-05-19T09:24:31;17.90;99.90
56234;DHT22;42141;53.240;6.580;2023-05-19T09:26:58;18.00;99.90
56234;DHT22;42141;53.240;6.580;2023-05-19T09:29:24;18.00;99.90
56234;DHT22;42141;53.240;6.580;2023-05-19T09:31:51;18.10;99.90
56234;DHT22;42141;53.240;6.580;2023-05-19T09:34:19;18.10;99.70
56234;DHT22;42141;53.240;6.580;2023-05-19T09:36:46;18.10;99.30
56234;DHT22;42141;53.240;6.580;2023-05-19T09:39:17;18.20;99.20
56234;DHT22;42141;53.240;6.580;2023-05-19T09:41:44;18.20;99.00
56234;DHT22;42141;53.240;6.580;2023-05-19T09:44:21;18.30;98.80
56234;DHT22;42141;53.240;6.580;2023-05-19T09:46:57;18.20;98.00
56234;DHT22;42141;53.240;6.580;2023-05-19T09:49:27;18.20;98.40
56234;DHT22;42141;53.240;6.580;2023-05-19T09:52:01;18.10;98.00
56234;DHT22;42141;53.240;6.580;2023-05-19T09:54:29;18.20;98.00
56234;DHT22;42141;53.240;6.580;2023-05-19T09:57:03;18.30;98.30
56234;DHT22;42141;53.240;6.580;2023-05-19T09:59:30;18.40;97.00
56234;DHT22;42141;53.240;6.580;2023-05-19T10:01:57;18.40;97.00
56234;DHT22;42141;53.240;6.580;2023-05-19T10:04:24;18.50;97.10
56234;DHT22;42141;53.240;6.580;2023-05-19T10:06:55;18.60;96.90
56234;DHT22;42141;53.240;6.580;2023-05-19T10:09:28;18.70;96.80
56234;DHT22;42141;53.240;6.580;2023-05-19T10:11:55;18.80;96.90
56234;DHT22;42141;53.240;6.580;2023-05-19T10:14:25;18.90;96.80
56234;DHT22;42141;53.240;6.580;2023-05-19T10:16:52;19.00;97.00
56234;DHT22;42141;53.240;6.580;2023-05-19T10:19:25;19.00;96.30
56234;DHT22;42141;53.240;6.580;2023-05-19T10:21:52;20.00;95.90
56234;DHT22;42141;53.240;6.580;2023-05-19T10:24:18;19.00;95.80
56234;DHT22;42141;53.240;6.580;2023-05-19T10:26:52;19.10;95.90
56234;DHT22;42141;53.240;6.580;2023-05-19T10:29:24;19.10;93.40
56234;DHT22;42141;53.240;6.580;2023-05-19T10:31:52;19.30;93.70
56234;DHT22;42141;53.240;6.580;2023-05-19T10:39:57;19.70;93.80
56234;DHT22;42141;53.240;6.580;2023-05-19T10:42:28;19.90;93.80
56234;DHT22;42141;53.240;6.580;2023-05-19T10:45:20;19.90;93.40
56234;DHT22;42141;53.240;6.580;2023-05-19T10:47:48;20.00;91.70
56234;DHT22;42141;53.240;6.580;2023-05-19T10:50:14;19.90;92.10
56234;DHT22;42141;53.240;6.580;2023-05-19T10:52:41;19.80;91.10
56234;DHT22;42141;53.240;6.580;2023-05-19T10:55:11;19.70;90.70
56234;DHT22;42141;53.240;6.580;2023-05-19T10:58:02;19.80;91.10
56234;DHT22;42141;53.240;6.580;2023-05-19T11:00:31;20.00;90.80
56234;DHT22;42141;53.240;6.580;2023-05-19T11:03:12;20.10;90.60
56234;DHT22;42141;53.240;6.580;2023-05-19T11:05:38;20.10;88.10
56234;DHT22;42141;53.240;6.580;2023-05-19T11:08:05;20.20;88.60
56234;DHT22;42141;53.240;6.580;2023-05-19T11:10:36;20.40;88.10
56234;DHT22;42141;53.240;6.580;2023-05-19T11:13:03;20.50;88.10
56234;DHT22;42141;53.240;6.580;2023-05-19T11:15:33;20.60;85.90
56234;DHT22;42141;53.240;6.580;2023-05-19T11:18:00;20.80;84.50
56234;DHT22;42141;53.240;6.580;2023-05-19T11:20:28;20.70;83.90
56234;DHT22;42141;53.240;6.580;2023-05-19T11:23:20;20.60;84.30
56234;DHT22;42141;53.240;6.580;2023-05-19T11:25:48;20.70;83.20
56234;DHT22;42141;53.240;6.580;2023-05-19T11:28:16;20.70;85.30
56234;DHT22;42141;53.240;6.580;2023-05-19T11:30:44;20.70;83.00
56234;DHT22;42141;53.240;6.580;2023-05-19T11:33:12;20.70;80.80
56234;DHT22;42141;53.240;6.580;2023-05-19T11:35:38;20.70;81.00
56234;DHT22;42141;53.240;6.580;2023-05-19T11:38:05;20.90;80.50
56234;DHT22;42141;53.240;6.580;2023-05-19T11:40:32;21.00;79.20
56234;DHT22;42141;53.240;6.580;2023-05-19T11:42:58;21.20;79.20
56234;DHT22;42141;53.240;6.580;2023-05-19T11:45:28;21.50;79.00
56234;DHT22;42141;53.240;6.580;2023-05-19T11:47:57;21.60;77.00
56234;DHT22;42141;53.240;6.580;2023-05-19T11:50:23;21.70;76.90
56234;DHT22;42141;53.240;6.580;2023-05-19T11:52:52;21.70;74.30
56234;DHT22;42141;53.240;6.580;2023-05-19T11:55:19;21.80;74.30
56234;DHT22;42141;53.240;6.580;2023-05-19T11:58:06;21.90;73.90
56234;DHT22;42141;53.240;6.580;2023-05-19T12:00:37;21.90;69.30
56234;DHT22;42141;53.240;6.580;2023-05-19T12:03:04;21.80;71.80
56234;DHT22;42141;53.240;6.580;2023-05-19T12:05:30;21.90;72.20
56234;DHT22;42141;53.240;6.580;2023-05-19T12:07:56;21.80;70.80
56234;DHT22;42141;53.240;6.580;2023-05-19T12:10:22;21.80;70.90
56234;DHT22;42141;53.240;6.580;2023-05-19T12:12:52;21.90;71.60
56234;DHT22;42141;53.240;6.580;2023-05-19T12:15:22;22.00;69.30
56234;DHT22;42141;53.240;6.580;2023-05-19T12:17:57;21.90;68.70
56234;DHT22;42141;53.240;6.580;2023-05-19T12:20:27;22.10;69.60
56234;DHT22;42141;53.240;6.580;2023-05-19T12:22:56;22.10;68.40
56234;DHT22;42141;53.240;6.580;2023-05-19T12:25:22;22.20;68.00
56234;DHT22;42141;53.240;6.580;2023-05-19T12:27:49;22.30;67.80
56234;DHT22;42141;53.240;6.580;2023-05-19T12:30:17;22.30;68.00
56234;DHT22;42141;53.240;6.580;2023-05-19T12:32:45;22.40;67.70
56234;DHT22;42141;53.240;6.580;2023-05-19T12:35:11;22.50;67.20
56234;DHT22;42141;53.240;6.580;2023-05-19T12:37:40;22.60;66.90
56234;DHT22;42141;53.240;6.580;2023-05-19T12:40:07;22.70;66.60
56234;DHT22;42141;53.240;6.580;2023-05-19T12:42:33;22.80;66.40
56234;DHT22;42141;53.240;6.580;2023-05-19T12:45:02;22.80;65.70
56234;DHT22;42141;53.240;6.580;2023-05-19T12:47:38;22.80;65.60
56234;DHT22;42141;53.240;6.580;2023-05-19T12:50:05;22.90;65.00
56234;DHT22;42141;53.240;6.580;2023-05-19T12:52:47;22.70;65.70
56234;DHT22;42141;53.240;6.580;2023-05-19T12:55:13;22.50;65.50
56234;DHT22;42141;53.240;6.580;2023-05-19T12:57:42;22.30;65.30
56234;DHT22;42141;53.240;6.580;2023-05-19T13:00:15;22.20;65.20
56234;DHT22;42141;53.240;6.580;2023-05-19T13:05:27;22.30;64.80
56234;DHT22;42141;53.240;6.580;2023-05-19T13:10:23;22.30;65.40
56234;DHT22;42141;53.240;6.580;2023-05-19T13:12:55;22.40;65.60
56234;DHT22;42141;53.240;6.580;2023-05-19T13:15:22;22.60;65.40
56234;DHT22;42141;53.240;6.580;2023-05-19T13:17:49;22.80;65.10
56234;DHT22;42141;53.240;6.580;2023-05-19T13:20:14;23.00;65.60
56234;DHT22;42141;53.240;6.580;2023-05-19T13:22:40;23.00;65.10
56234;DHT22;42141;53.240;6.580;2023-05-19T13:25:07;23.00;64.70
56234;DHT22;42141;53.240;6.580;2023-05-19T13:27:33;23.00;64.60
56234;DHT22;42141;53.240;6.580;2023-05-19T13:30:00;22.90;65.20
56234;DHT22;42141;53.240;6.580;2023-05-19T13:32:26;22.80;65.00
56234;DHT22;42141;53.240;6.580;2023-05-19T13:34:51;22.80;64.90
56234;DHT22;42141;53.240;6.580;2023-05-19T13:37:17;22.50;65.40
56234;DHT22;42141;53.240;6.580;2023-05-19T13:39:43;22.40;67.10
56234;DHT22;42141;53.240;6.580;2023-05-19T13:42:08;22.10;68.10
56234;DHT22;42141;53.240;6.580;2023-05-19T13:44:34;21.90;69.40
56234;DHT22;42141;53.240;6.580;2023-05-19T13:47:00;21.50;71.00
56234;DHT22;42141;53.240;6.580;2023-05-19T13:49:26;21.10;72.20
56234;DHT22;42141;53.240;6.580;2023-05-19T13:51:55;20.90;74.50
56234;DHT22;42141;53.240;6.580;2023-05-19T13:54:22;21.10;75.10
56234;DHT22;42141;53.240;6.580;2023-05-19T13:56:48;21.30;76.10
56234;DHT22;42141;53.240;6.580;2023-05-19T13:59:15;21.50;77.40
56234;DHT22;42141;53.240;6.580;2023-05-19T14:01:43;21.50;77.70
56234;DHT22;42141;53.240;6.580;2023-05-19T14:04:10;21.40;77.20
56234;DHT22;42141;53.240;6.580;2023-05-19T14:06:35;21.30;77.60
56234;DHT22;42141;53.240;6.580;2023-05-19T14:09:03;21.20;79.10
56234;DHT22;42141;53.240;6.580;2023-05-19T14:11:28;21.40;80.30
56234;DHT22;42141;53.240;6.580;2023-05-19T14:13:54;21.60;80.90
56234;DHT22;42141;53.240;6.580;2023-05-19T14:16:20;21.70;80.30
56234;DHT22;42141;53.240;6.580;2023-05-19T14:18:50;21.90;80.70
56234;DHT22;42141;53.240;6.580;2023-05-19T14:21:17;22.00;81.70
56234;DHT22;42141;53.240;6.580;2023-05-19T14:23:42;22.00;81.40
56234;DHT22;42141;53.240;6.580;2023-05-19T14:26:08;21.80;81.20
56234;DHT22;42141;53.240;6.580;2023-05-19T14:28:34;21.60;81.70
56234;DHT22;42141;53.240;6.580;2023-05-19T14:31:00;21.70;83.80
56234;DHT22;42141;53.240;6.580;2023-05-19T14:33:26;21.80;83.80
56234;DHT22;42141;53.240;6.580;2023-05-19T14:35:52;21.90;84.20
56234;DHT22;42141;53.240;6.580;2023-05-19T14:38:17;21.70;84.00
56234;DHT22;42141;53.240;6.580;2023-05-19T14:40:43;21.80;85.30
56234;DHT22;42141;53.240;6.580;2023-05-19T14:43:09;21.80;84.50
56234;DHT22;42141;53.240;6.580;2023-05-19T14:45:37;21.60;84.80
56234;DHT22;42141;53.240;6.580;2023-05-19T14:48:04;21.50;85.20
56234;DHT22;42141;53.240;6.580;2023-05-19T14:50:30;21.30;85.00
56234;DHT22;42141;53.240;6.580;2023-05-19T14:52:56;21.20;86.00
56234;DHT22;42141;53.240;6.580;2023-05-19T14:55:22;21.10;86.40
56234;DHT22;42141;53.240;6.580;2023-05-19T14:57:48;21.20;87.20
56234;DHT22;42141;53.240;6.580;2023-05-19T15:00:15;21.20;87.40
56234;DHT22;42141;53.240;6.580;2023-05-19T15:02:42;21.30;87.70
56234;DHT22;42141;53.240;6.580;2023-05-19T15:05:08;21.40;87.90
56234;DHT22;42141;53.240;6.580;2023-05-19T15:07:33;21.60;87.80
56234;DHT22;42141;53.240;6.580;2023-05-19T15:09:59;21.70;88.30
56234;DHT22;42141;53.240;6.580;2023-05-19T15:12:26;21.90;87.90
56234;DHT22;42141;53.240;6.580;2023-05-19T15:14:51;22.00;87.60
56234;DHT22;42141;53.240;6.580;2023-05-19T15:17:17;22.10;87.30
56234;DHT22;42141;53.240;6.580;2023-05-19T15:19:43;21.90;86.60
56234;DHT22;42141;53.240;6.580;2023-05-19T15:22:09;21.60;86.90
56234;DHT22;42141;53.240;6.580;2023-05-19T15:24:34;21.40;87.90
56234;DHT22;42141;53.240;6.580;2023-05-19T15:27:00;21.20;88.60
56234;DHT22;42141;53.240;6.580;2023-05-19T15:29:26;20.90;89.30
56234;DHT22;42141;53.240;6.580;2023-05-19T15:31:52;20.70;90.20
56234;DHT22;42141;53.240;6.580;2023-05-19T15:34:19;20.50;90.50
56234;DHT22;42141;53.240;6.580;2023-05-19T15:36:45;20.60;91.20
56234;DHT22;42141;53.240;6.580;2023-05-19T15:39:11;20.40;91.30
56234;DHT22;42141;53.240;6.580;2023-05-19T15:41:37;20.40;91.50
56234;DHT22;42141;53.240;6.580;2023-05-19T15:44:03;20.40;91.60
56234;DHT22;42141;53.240;6.580;2023-05-19T15:46:29;20.30;91.70
56234;DHT22;42141;53.240;6.580;2023-05-19T15:48:55;20.30;92.10
56234;DHT22;42141;53.240;6.580;2023-05-19T15:51:21;20.20;92.20
56234;DHT22;42141;53.240;6.580;2023-05-19T15:53:46;20.00;92.20
56234;DHT22;42141;53.240;6.580;2023-05-19T15:56:12;19.90;92.50
56234;DHT22;42141;53.240;6.580;2023-05-19T15:58:38;19.80;92.60
56234;DHT22;42141;53.240;6.580;2023-05-19T16:01:04;19.60;92.70
56234;DHT22;42141;53.240;6.580;2023-05-19T16:03:29;19.50;92.90
56234;DHT22;42141;53.240;6.580;2023-05-19T16:05:55;19.30;93.00